Time;durP1;ratioP1;P1;durP2;ratioP2;P2;SDS_P1;SDS_P2;PMS_P1;PMS_P2;Temp;Humidity;BMP_temperature;BMP_pressure;BME280_temperature;BME280_humidity;BME280_pressure;Samples;Min_cycle;Max_cycle;Signal;HPM_P1;HPM_P2
2021/08/13 00:01:18;;;;;;;9.65;2.05;;;14.50;80.70;;;;;;5048030;28;20246;-80
2021/08/13 00:03:44;;;;;;;13.93;2.08;;;14.50;80.90;;;;;;5047973;28;20415;-80
2021/08/13 00:06:10;;;;;;;10.63;2.00;;;14.50;81.20;;;;;;5047851;28;20064;-79
2021/08/13 00:08:36;;;;;;;10.68;2.20;;;14.40;81.40;;;;;;5047881;28;20029;-78
2021/08/13 00:11:02;;;;;;;14.07;2.13;;;14.40;81.70;;;;;;5030836;28;20110;-77
2021/08/13 00:13:28;;;;;;;9.50;2.20;;;14.40;81.90;;;;;;5047582;28;20116;-79
2021/08/13 00:15:54;;;;;;;8.55;1.80;;;14.40;82.10;;;;;;5031003;28;20112;-77
2021/08/13 00:18:19;;;;;;;7.85;1.77;;;14.40;82.40;;;;;;5047635;28;20153;-79
2021/08/13 00:20:45;;;;;;;10.95;2.10;;;14.40;82.60;;;;;;5047535;28;20476;-80
2021/08/13 00:23:11;;;;;;;13.23;2.10;;;14.40;82.90;;;;;;5047466;28;20055;-81
2021/08/13 00:25:37;;;;;;;13.10;2.38;;;14.30;83.20;;;;;;5047431;28;20029;-76
2021/08/13 00:28:04;;;;;;;12.57;2.25;;;14.30;83.50;;;;;;5047507;28;20384;-78
2021/08/13 00:30:29;;;;;;;14.25;2.40;;;14.30;84.00;;;;;;5047455;28;20033;-81
2021/08/13 00:32:55;;;;;;;12.73;2.22;;;14.30;84.40;;;;;;5030867;28;20036;-78
2021/08/13 00:35:21;;;;;;;15.20;1.90;;;14.30;84.70;;;;;;5047622;28;20036;-82
2021/08/13 00:37:47;;;;;;;8.32;2.00;;;14.30;85.20;;;;;;5047281;28;20119;-79
2021/08/13 00:40:13;;;;;;;12.60;2.30;;;14.20;85.60;;;;;;5048716;28;20419;-80
2021/08/13 00:42:38;;;;;;;14.60;2.10;;;14.20;86.00;;;;;;5047089;28;20029;-77
2021/08/13 00:45:05;;;;;;;11.68;2.10;;;14.20;86.40;;;;;;5048285;28;20055;-80
2021/08/13 00:47:31;;;;;;;10.00;1.67;;;14.20;86.60;;;;;;5047146;28;20031;-79
2021/08/13 00:49:57;;;;;;;;;;;14.20;87.00;;;;;;5030903;28;20036;-80
2021/08/13 00:52:23;;;;;;;13.68;2.33;;;14.20;87.30;;;;;;5048163;28;19912;-80
2021/08/13 00:54:49;;;;;;;13.60;2.30;;;14.20;87.30;;;;;;5048159;28;20017;-79
2021/08/13 00:57:15;;;;;;;15.77;2.60;;;14.20;87.80;;;;;;5046727;28;20476;-80
2021/08/13 00:59:41;;;;;;;7.47;1.67;;;14.20;88.10;;;;;;5048267;28;20040;-77
2021/08/13 01:02:08;;;;;;;12.15;2.33;;;14.20;88.50;;;;;;5046762;28;20037;-79
2021/08/13 01:04:33;;;;;;;15.00;2.42;;;14.20;89.00;;;;;;5046789;28;20029;-78
2021/08/13 01:07:01;;;;;;;13.93;2.28;;;14.20;89.30;;;;;;5030369;28;20083;-78
2021/08/13 01:09:27;;;;;;;13.30;1.98;;;14.20;89.50;;;;;;5047985;28;20485;-80
2021/08/13 01:11:52;;;;;;;8.07;1.95;;;14.20;89.70;;;;;;5046467;28;20129;-80
2021/08/13 01:14:27;;;;;;;9.23;1.77;;;14.20;90.00;;;;;;5047916;28;20025;-77
2021/08/13 01:16:56;;;;;;;9.52;2.17;;;14.20;90.20;;;;;;5046462;28;20048;-78
2021/08/13 01:20:06;;;;;;;10.05;2.33;;;14.20;90.30;;;;;;5047805;28;20460;-79
2021/08/13 01:22:39;;;;;;;7.82;1.73;;;14.20;90.50;;;;;;5008759;28;20030;-80
2021/08/13 01:25:06;;;;;;;11.13;2.25;;;14.10;90.50;;;;;;5042632;28;20546;-80
2021/08/13 01:27:38;;;;;;;11.35;2.33;;;14.10;90.50;;;;;;5046638;28;20055;-79
2021/08/13 01:30:10;;;;;;;14.55;2.40;;;14.10;90.70;;;;;;5046361;28;20035;-79
2021/08/13 01:32:47;;;;;;;11.73;1.67;;;14.10;90.70;;;;;;5046260;28;20036;-78
2021/08/13 01:35:28;;;;;;;13.38;3.00;;;14.10;90.90;;;;;;5046290;28;20382;-81
2021/08/13 01:37:58;;;;;;;12.82;2.70;;;14.10;91.00;;;;;;5046289;28;20027;-81
2021/08/13 01:40:26;;;;;;;12.30;2.03;;;14.00;91.10;;;;;;5047662;28;20092;-78
2021/08/13 01:42:54;;;;;;;16.23;2.80;;;14.00;91.30;;;;;;5047511;28;20020;-79
2021/08/13 01:45:30;;;;;;;10.65;2.10;;;14.00;91.40;;;;;;5046046;28;20427;-79
2021/08/13 01:47:57;;;;;;;12.00;2.30;;;14.00;91.50;;;;;;5047588;28;20475;-79
2021/08/13 01:50:24;;;;;;;11.18;2.83;;;14.00;91.60;;;;;;5046148;28;20415;-79
2021/08/13 01:52:52;;;;;;;13.90;2.53;;;14.00;91.60;;;;;;5029831;28;20033;-80
2021/08/13 01:55:19;;;;;;;14.02;2.67;;;14.00;91.70;;;;;;5047708;28;20025;-77
2021/08/13 01:57:45;;;;;;;;;;;14.00;91.90;;;;;;5051896;28;20083;-78
2021/08/13 02:00:14;;;;;;;13.67;2.47;;;14.00;91.90;;;;;;5050104;28;19919;-79
2021/08/13 02:02:41;;;;;;;9.50;2.40;;;14.00;91.90;;;;;;5049969;28;20259;-79
2021/08/13 02:05:08;;;;;;;11.02;2.42;;;14.00;92.20;;;;;;5033449;28;20037;-77
2021/08/13 02:07:37;;;;;;;10.32;3.13;;;13.90;92.20;;;;;;5051171;28;20154;-79
2021/08/13 02:10:09;;;;;;;13.80;3.03;;;13.90;92.30;;;;;;5049928;28;20034;-81
2021/08/13 02:12:35;;;;;;;13.02;2.67;;;13.90;92.50;;;;;;5050857;28;20095;-79
2021/08/13 02:15:05;;;;;;;10.75;2.55;;;13.90;92.50;;;;;;5051150;28;20112;-78
2021/08/13 02:17:33;;;;;;;13.70;2.55;;;13.90;92.70;;;;;;5051036;28;20059;-78
2021/08/13 02:20:07;;;;;;;15.75;2.70;;;13.90;92.80;;;;;;5050938;28;20108;-77
2021/08/13 02:22:33;;;;;;;13.25;2.50;;;13.80;92.90;;;;;;5049585;28;20028;-80
2021/08/13 02:24:59;;;;;;;16.70;3.17;;;13.80;93.00;;;;;;5050886;28;20050;-80
2021/08/13 02:27:28;;;;;;;9.95;1.88;;;13.80;93.10;;;;;;5033308;28;20033;-78
2021/08/13 02:29:54;;;;;;;12.50;2.38;;;13.80;93.20;;;;;;5049584;28;20029;-79
2021/08/13 02:32:21;;;;;;;16.17;3.25;;;13.80;93.40;;;;;;5032861;28;20029;-78
2021/08/13 02:34:46;;;;;;;13.88;2.35;;;13.80;93.50;;;;;;5050733;28;20025;-78
2021/08/13 02:37:24;;;;;;;12.00;2.65;;;13.80;93.50;;;;;;5032933;28;20025;-77
2021/08/13 02:39:59;;;;;;;15.23;2.58;;;13.80;93.70;;;;;;5050585;28;20029;-79
2021/08/13 02:42:45;;;;;;;13.57;2.33;;;13.80;93.70;;;;;;5049359;28;20032;-79
2021/08/13 02:45:14;;;;;;;13.20;2.63;;;13.70;93.90;;;;;;5049074;28;20021;-80
2021/08/13 02:47:43;;;;;;;12.80;2.15;;;13.70;93.90;;;;;;5050545;28;20484;-79
2021/08/13 02:50:10;;;;;;;7.35;2.00;;;13.70;94.20;;;;;;5049488;28;20033;-77
2021/08/13 02:52:44;;;;;;;12.40;2.63;;;13.70;94.10;;;;;;5032595;28;20080;-80
2021/08/13 02:55:15;;;;;;;13.48;3.15;;;13.70;94.20;;;;;;5050331;28;20025;-78
2021/08/13 02:57:42;;;;;;;13.70;2.28;;;13.70;94.30;;;;;;5049123;28;20021;-79
2021/08/13 03:00:08;;;;;;;12.82;1.90;;;13.70;94.40;;;;;;5050246;28;20058;-80
2021/08/13 03:02:35;;;;;;;15.18;2.85;;;13.70;94.50;;;;;;5049079;28;20037;-80
2021/08/13 03:05:02;;;;;;;9.88;2.30;;;13.70;94.60;;;;;;5032359;28;20499;-78
2021/08/13 03:07:29;;;;;;;14.25;2.55;;;13.70;94.60;;;;;;5047790;28;20033;-78
2021/08/13 03:09:56;;;;;;;12.70;2.20;;;13.70;94.70;;;;;;5048944;28;20426;-80
2021/08/13 03:12:22;;;;;;;14.00;2.40;;;13.70;94.80;;;;;;5048621;28;20120;-80
2021/08/13 03:14:49;;;;;;;14.50;2.97;;;13.70;94.80;;;;;;5048709;28;20033;-77
2021/08/13 03:17:15;;;;;;;10.45;2.40;;;13.70;95.00;;;;;;5048604;28;20108;-78
2021/08/13 03:19:41;;;;;;;17.05;2.50;;;13.70;95.00;;;;;;5049910;28;20026;-80
2021/08/13 03:22:07;;;;;;;17.20;2.72;;;13.70;95.10;;;;;;5048651;28;20032;-79
2021/08/13 03:24:33;;;;;;;;;;;13.70;95.20;;;;;;5015951;28;20063;-79
2021/08/13 03:26:59;;;;;;;12.15;3.10;;;13.70;95.30;;;;;;5048473;28;19908;-79
2021/08/13 03:29:25;;;;;;;21.55;2.90;;;13.90;95.40;;;;;;5032009;28;20040;-79
2021/08/13 03:31:50;;;;;;;8.65;1.80;;;14.00;95.40;;;;;;5032145;28;20033;-79
2021/08/13 03:34:17;;;;;;;10.88;2.17;;;14.10;95.30;;;;;;5031957;28;20025;-80
2021/08/13 03:36:43;;;;;;;11.75;2.35;;;14.20;95.20;;;;;;5048406;28;20114;-79
2021/08/13 03:39:11;;;;;;;13.70;2.28;;;14.30;95.10;;;;;;5032095;28;20452;-80
2021/08/13 03:41:37;;;;;;;10.50;2.10;;;14.30;95.00;;;;;;5048235;28;20396;-77
2021/08/13 03:44:04;;;;;;;13.38;2.85;;;14.20;94.90;;;;;;5048117;28;20041;-79
2021/08/13 03:46:30;;;;;;;21.10;2.58;;;14.20;95.00;;;;;;5031529;28;20030;-81
2021/08/13 03:48:55;;;;;;;12.88;2.00;;;14.10;95.00;;;;;;5031434;28;20083;-80
2021/08/13 03:51:21;;;;;;;7.72;2.20;;;14.10;95.10;;;;;;5031433;28;20041;-80
2021/08/13 03:53:47;;;;;;;12.95;2.85;;;14.10;95.20;;;;;;5047893;28;20054;-78
2021/08/13 03:56:13;;;;;;;11.88;2.35;;;14.00;95.20;;;;;;5014796;28;20029;-81
2021/08/13 03:58:39;;;;;;;12.80;2.17;;;14.00;95.30;;;;;;5047783;28;20094;-78
2021/08/13 04:01:09;;;;;;;15.65;3.50;;;14.00;95.40;;;;;;5047724;28;20054;-80
2021/08/13 04:03:35;;;;;;;12.65;2.10;;;14.00;95.40;;;;;;5047844;28;20041;-80
2021/08/13 04:06:00;;;;;;;;;;;13.90;95.50;;;;;;5048037;28;20505;-80
2021/08/13 04:08:26;;;;;;;15.40;2.78;;;13.90;95.50;;;;;;5047846;28;20039;-81
2021/08/13 04:10:52;;;;;;;16.67;2.58;;;13.90;95.50;;;;;;5031089;28;20041;-77
2021/08/13 04:13:17;;;;;;;8.32;2.35;;;13.90;95.50;;;;;;5047482;28;20033;-79
2021/08/13 04:15:44;;;;;;;11.73;2.28;;;13.80;95.60;;;;;;5047483;28;20458;-80
2021/08/13 04:18:10;;;;;;;9.55;2.13;;;13.80;95.70;;;;;;5030796;28;20209;-79
2021/08/13 04:20:36;;;;;;;12.68;2.05;;;13.70;95.70;;;;;;5047557;28;20104;-81
2021/08/13 04:23:02;;;;;;;12.73;1.98;;;13.80;95.80;;;;;;5047398;28;20479;-78
2021/08/13 04:25:28;;;;;;;8.27;1.70;;;13.70;95.80;;;;;;5048601;28;20293;-78
2021/08/13 04:27:54;;;;;;;14.90;2.15;;;13.70;95.80;;;;;;5047619;28;20681;-78
2021/08/13 04:30:19;;;;;;;10.75;2.40;;;13.60;95.90;;;;;;5047368;28;20024;-79
2021/08/13 04:32:45;;;;;;;12.98;2.25;;;13.60;95.90;;;;;;5030419;28;20033;-78
2021/08/13 04:35:11;;;;;;;13.32;2.38;;;13.70;96.00;;;;;;5047133;28;20036;-77
2021/08/13 04:37:37;;;;;;;10.70;2.38;;;13.60;96.00;;;;;;5047311;28;20029;-79
2021/08/13 04:40:03;;;;;;;15.65;2.50;;;13.60;96.10;;;;;;5014250;28;20139;-77
2021/08/13 04:42:29;;;;;;;13.95;2.92;;;13.60;96.10;;;;;;5030527;28;20087;-81
2021/08/13 04:44:55;;;;;;;16.40;2.50;;;13.60;96.10;;;;;;5047025;28;20443;-79
2021/08/13 04:47:20;;;;;;;8.18;2.00;;;13.60;96.10;;;;;;5047051;28;20426;-81
2021/08/13 04:49:46;;;;;;;14.90;2.88;;;13.60;96.10;;;;;;5048395;28;20037;-77
2021/08/13 04:52:12;;;;;;;13.05;2.08;;;13.60;96.10;;;;;;5046957;28;20065;-80
2021/08/13 04:54:38;;;;;;;14.60;2.17;;;13.60;96.20;;;;;;5046909;28;20025;-79
2021/08/13 04:57:04;;;;;;;11.50;2.40;;;13.60;96.20;;;;;;5030261;28;20116;-79
2021/08/13 04:59:29;;;;;;;12.15;2.38;;;13.60;96.20;;;;;;5013948;28;20024;-80
2021/08/13 05:01:55;;;;;;;14.75;2.47;;;13.60;96.20;;;;;;5046765;28;20039;-78
2021/08/13 05:04:21;;;;;;;11.18;2.30;;;13.60;96.50;;;;;;5030188;28;20029;-77
2021/08/13 05:06:46;;;;;;;10.45;2.45;;;13.60;96.30;;;;;;5030153;28;20044;-81
2021/08/13 05:09:12;;;;;;;11.80;1.95;;;13.60;96.40;;;;;;5047953;28;20667;-79
2021/08/13 05:11:38;;;;;;;16.52;2.60;;;13.70;96.40;;;;;;5046200;28;20052;-78
2021/08/13 05:14:04;;;;;;;11.13;2.60;;;13.80;96.30;;;;;;5046471;28;20037;-80
2021/08/13 05:16:30;;;;;;;12.00;2.40;;;13.80;96.30;;;;;;5030181;28;20036;-81
2021/08/13 05:18:56;;;;;;;14.77;2.22;;;13.90;96.30;;;;;;5048151;28;20029;-78
2021/08/13 05:21:22;;;;;;;12.88;2.67;;;13.90;96.20;;;;;;5046402;28;20426;-77
2021/08/13 05:23:48;;;;;;;12.40;2.15;;;13.90;96.10;;;;;;5046551;28;20040;-77
2021/08/13 05:26:13;;;;;;;14.00;2.08;;;13.90;96.10;;;;;;5029679;28;20112;-78
2021/08/13 05:28:39;;;;;;;18.33;2.42;;;14.00;96.10;;;;;;5046296;28;20029;-78
2021/08/13 05:31:05;;;;;;;11.05;2.13;;;14.00;96.10;;;;;;5045698;28;20120;-79
2021/08/13 05:33:31;;;;;;;16.17;2.30;;;14.00;96.20;;;;;;5013593;28;20041;-79
2021/08/13 05:35:57;;;;;;;13.70;2.20;;;14.10;96.20;;;;;;5029588;28;20021;-79
2021/08/13 05:38:22;;;;;;;14.48;2.45;;;14.20;96.20;;;;;;5046316;28;20519;-78
2021/08/13 05:40:48;;;;;;;9.05;2.10;;;14.40;96.10;;;;;;5029691;28;20028;-79
2021/08/13 05:43:14;;;;;;;14.13;2.00;;;14.60;95.80;;;;;;5046466;28;20418;-81
2021/08/13 05:45:40;;;;;;;9.90;2.10;;;14.70;95.60;;;;;;5046258;28;20024;-80
2021/08/13 05:48:05;;;;;;;10.48;2.05;;;14.90;95.40;;;;;;5047562;28;20034;-78
2021/08/13 05:50:31;;;;;;;13.57;2.38;;;15.00;95.20;;;;;;5046015;28;20082;-81
2021/08/13 05:52:57;;;;;;;9.10;2.17;;;15.00;95.10;;;;;;5047307;28;20037;-80
2021/08/13 05:55:23;;;;;;;10.63;1.98;;;15.10;95.00;;;;;;5046205;28;20394;-80
2021/08/13 05:57:49;;;;;;;10.07;2.05;;;15.20;94.80;;;;;;5045795;28;20380;-78
2021/08/13 06:00:15;;;;;;;7.63;1.77;;;15.30;94.70;;;;;;5046134;28;20025;-77
2021/08/13 06:02:58;;;;;;;14.40;2.10;;;15.30;94.50;;;;;;5029153;28;20044;-80
2021/08/13 06:05:24;;;;;;;13.00;2.35;;;15.30;94.40;;;;;;5045948;28;20430;-78
2021/08/13 06:07:50;;;;;;;10.07;2.85;;;15.40;94.30;;;;;;5045843;28;20025;-77
2021/08/13 06:10:17;;;;;;;17.30;2.30;;;15.40;94.20;;;;;;5029657;28;20144;-78
2021/08/13 06:12:43;;;;;;;10.60;2.45;;;15.50;94.10;;;;;;5029242;28;20048;-79
2021/08/13 06:15:09;;;;;;;;;;;15.50;94.00;;;;;;5046223;28;20024;-79
2021/08/13 06:17:35;;;;;;;7.63;2.25;;;15.50;93.90;;;;;;5045692;28;19909;-80
2021/08/13 06:20:00;;;;;;;10.30;3.17;;;15.60;93.80;;;;;;5047128;28;20029;-78
2021/08/13 06:22:26;;;;;;;11.38;1.80;;;15.60;93.70;;;;;;5045840;28;20485;-79
2021/08/13 06:24:52;;;;;;;16.23;3.30;;;15.50;93.60;;;;;;5047104;28;20493;-79
2021/08/13 06:27:18;;;;;;;10.90;2.47;;;15.50;93.70;;;;;;5029152;28;20120;-80
2021/08/13 06:29:43;;;;;;;6.07;1.73;;;15.70;93.90;;;;;;5029143;28;20040;-79
2021/08/13 06:32:09;;;;;;;11.35;2.38;;;16.10;93.40;;;;;;5012735;28;20115;-82
2021/08/13 06:34:34;;;;;;;11.07;2.35;;;16.20;92.80;;;;;;5045593;28;20426;-78
2021/08/13 06:37:00;;;;;;;11.80;2.35;;;16.10;92.60;;;;;;5012607;28;20120;-80
2021/08/13 06:39:27;;;;;;;10.45;2.03;;;16.00;92.70;;;;;;5047073;28;20079;-78
2021/08/13 06:41:52;;;;;;;15.40;2.83;;;15.90;92.80;;;;;;5030462;28;20120;-79
2021/08/13 06:44:18;;;;;;;9.07;1.63;;;15.90;92.90;;;;;;5049219;28;20130;-80
2021/08/13 06:46:44;;;;;;;9.82;2.50;;;15.80;92.90;;;;;;5049143;28;20037;-78
2021/08/13 06:49:10;;;;;;;16.40;3.17;;;15.80;93.00;;;;;;5032367;28;20058;-79
2021/08/13 06:51:35;;;;;;;8.27;2.22;;;15.80;92.90;;;;;;5032509;28;20563;-78
2021/08/13 06:54:01;;;;;;;11.68;1.75;;;15.90;92.90;;;;;;5048945;28;20091;-78
2021/08/13 06:56:27;;;;;;;9.85;2.15;;;15.90;92.90;;;;;;5032518;28;20083;-78
2021/08/13 06:58:56;;;;;;;11.25;1.92;;;15.90;92.80;;;;;;5015784;28;20055;-80
2021/08/13 07:01:21;;;;;;;8.95;1.80;;;15.90;92.80;;;;;;5031622;28;20029;-79
2021/08/13 07:03:47;;;;;;;12.10;2.47;;;16.00;92.80;;;;;;5050377;28;20432;-80
2021/08/13 07:06:13;;;;;;;9.25;2.00;;;16.00;92.80;;;;;;5031995;28;20065;-78
2021/08/13 07:08:38;;;;;;;11.27;2.08;;;16.10;92.70;;;;;;5032303;28;20033;-77
2021/08/13 07:11:04;;;;;;;7.90;2.35;;;16.10;92.70;;;;;;5050048;28;20106;-80
2021/08/13 07:13:30;;;;;;;15.77;2.20;;;16.20;92.70;;;;;;5048839;28;20078;-80
2021/08/13 07:15:56;;;;;;;14.55;2.88;;;16.30;92.60;;;;;;5048782;28;20082;-77
2021/08/13 07:18:21;;;;;;;13.65;2.70;;;16.40;92.60;;;;;;5032327;28;20395;-79
2021/08/13 07:20:47;;;;;;;9.93;2.08;;;16.80;92.70;;;;;;5048790;28;20108;-80
2021/08/13 07:23:13;;;;;;;15.15;3.15;;;17.60;92.20;;;;;;5015788;28;20736;-78
2021/08/13 07:25:38;;;;;;;10.30;1.63;;;18.20;91.10;;;;;;5031624;28;20037;-79
2021/08/13 07:28:04;;;;;;;13.65;1.90;;;18.70;90.40;;;;;;5049707;28;20094;-77
2021/08/13 07:30:30;;;;;;;12.13;1.88;;;19.00;88.80;;;;;;5048478;28;20035;-80
2021/08/13 07:32:56;;;;;;;13.57;2.20;;;19.00;88.30;;;;;;5048472;28;20037;-80
2021/08/13 07:35:21;;;;;;;10.68;2.35;;;19.50;87.80;;;;;;5049573;28;20486;-80
2021/08/13 07:37:47;;;;;;;;;;;20.20;85.30;;;;;;5049093;28;20052;-79
2021/08/13 07:40:13;;;;;;;8.25;1.67;;;20.70;84.30;;;;;;5048381;28;19944;-80
2021/08/13 07:42:41;;;;;;;;;;;21.60;83.60;;;;;;5048636;28;20062;-78
2021/08/13 07:45:08;;;;;;;8.88;1.60;;;22.50;80.10;;;;;;5049080;28;20003;-80
2021/08/13 07:47:33;;;;;;;11.63;2.10;;;22.60;77.30;;;;;;5048969;28;20044;-79
2021/08/13 07:49:59;;;;;;;;;;;23.00;76.60;;;;;;5015036;28;20025;-80
2021/08/13 07:52:25;;;;;;;11.07;2.45;;;23.10;74.10;;;;;;5047528;28;19955;-79
2021/08/13 07:54:51;;;;;;;;;;;23.00;72.90;;;;;;5047968;28;20021;-81
2021/08/13 07:57:17;;;;;;;10.40;2.25;;;22.70;73.60;;;;;;5047869;28;19931;-80
2021/08/13 07:59:43;;;;;;;11.05;2.30;;;23.20;73.20;;;;;;5048780;28;20047;-81
2021/08/13 08:02:09;;;;;;;8.90;1.83;;;23.30;70.90;;;;;;5030934;28;20033;-78
2021/08/13 08:04:35;;;;;;;;;;;23.10;70.50;;;;;;5047977;28;20039;-81
2021/08/13 08:07:01;;;;;;;12.40;2.00;;;23.60;71.20;;;;;;5048886;28;19909;-79
2021/08/13 08:09:27;;;;;;;11.32;2.38;;;24.50;70.00;;;;;;5049229;28;20060;-81
2021/08/13 08:11:53;;;;;;;;;;;24.40;66.40;;;;;;5014597;28;20056;-79
2021/08/13 08:14:19;;;;;;;12.07;2.45;;;23.80;67.20;;;;;;5048461;28;19995;-78
2021/08/13 08:16:45;;;;;;;5.72;1.52;;;23.40;66.80;;;;;;5046976;28;20618;-79
2021/08/13 08:19:10;;;;;;;;;;;23.60;67.70;;;;;;5047766;28;20121;-79
2021/08/13 08:21:36;;;;;;;8.27;1.60;;;23.70;65.50;;;;;;5030560;28;20314;-81
2021/08/13 08:24:02;;;;;;;;;;;23.20;65.10;;;;;;5031043;28;20616;-80
2021/08/13 08:26:27;;;;;;;10.45;2.13;;;22.40;65.90;;;;;;5046654;28;19911;-80
2021/08/13 08:28:53;;;;;;;;;;;21.90;67.50;;;;;;5047475;28;20044;-81
2021/08/13 08:31:19;;;;;;;14.02;2.75;;;21.60;68.30;;;;;;5030499;28;20253;-80
2021/08/13 08:33:44;;;;;;;;;;;21.40;68.90;;;;;;5047131;28;20490;-79
2021/08/13 08:36:10;;;;;;;8.15;2.28;;;21.30;69.30;;;;;;5046977;28;19913;-80
2021/08/13 08:38:36;;;;;;;;;;;21.70;70.40;;;;;;5047430;28;20029;-79
2021/08/13 08:41:07;;;;;;;9.77;2.30;;;22.80;70.70;;;;;;5048293;28;19928;-82
2021/08/13 08:43:33;;;;;;;13.95;2.63;;;24.00;68.00;;;;;;5046309;28;20073;-81
2021/08/13 08:46:00;;;;;;;12.57;3.17;;;25.00;66.70;;;;;;5046423;28;20036;-80
2021/08/13 08:48:37;;;;;;;7.35;2.00;;;25.70;64.70;;;;;;5046669;28;20033;-83
2021/08/13 08:51:05;;;;;;;6.38;1.35;;;26.30;62.60;;;;;;5046590;28;20075;-80
2021/08/13 08:53:32;;;;;;;7.40;1.95;;;26.80;61.20;;;;;;5047784;28;20031;-79
2021/08/13 08:55:59;;;;;;;11.93;2.20;;;27.30;60.70;;;;;;5047601;28;20073;-80
2021/08/13 08:58:29;;;;;;;7.43;1.75;;;27.70;59.20;;;;;;5046268;28;20487;-79
2021/08/13 09:00:55;;;;;;;5.90;1.83;;;28.10;58.30;;;;;;5046141;28;20044;-80
2021/08/13 09:03:23;;;;;;;11.50;2.50;;;28.30;56.90;;;;;;5029289;28;20471;-78
2021/08/13 09:05:49;;;;;;;11.48;3.15;;;28.00;55.30;;;;;;5028946;28;20029;-81
2021/08/13 09:08:16;;;;;;;10.65;2.00;;;27.20;55.30;;;;;;5047680;28;20131;-78
2021/08/13 09:10:42;;;;;;;11.05;2.47;;;26.50;55.60;;;;;;5045820;28;20021;-79
2021/08/13 09:13:10;;;;;;;13.95;1.80;;;26.20;55.90;;;;;;5047223;28;20052;-78
2021/08/13 09:15:39;;;;;;;6.97;1.98;;;25.80;56.50;;;;;;5029684;28;20120;-79
2021/08/13 09:18:18;;;;;;;9.05;2.58;;;25.80;57.60;;;;;;5046094;28;20545;-78
2021/08/13 09:20:58;;;;;;;10.02;2.28;;;26.40;57.20;;;;;;5046491;28;20116;-80
2021/08/13 09:23:33;;;;;;;11.68;3.63;;;26.90;56.70;;;;;;5043091;28;20103;-79
2021/08/13 09:26:02;;;;;;;9.00;1.92;;;27.50;56.30;;;;;;5034299;28;20048;-80
2021/08/13 09:28:46;;;;;;;8.57;2.53;;;28.10;55.40;;;;;;5029042;28;20057;-78
2021/08/13 09:31:27;;;;;;;10.20;1.90;;;28.50;55.10;;;;;;5035259;28;20037;-79
2021/08/13 09:33:55;;;;;;;7.82;2.15;;;29.00;54.60;;;;;;5044634;28;20601;-79
2021/08/13 09:36:25;;;;;;;6.30;1.60;;;28.70;52.80;;;;;;5039356;28;20024;-80
2021/08/13 09:39:09;;;;;;;10.10;2.10;;;28.50;53.50;;;;;;5018583;28;20109;-80
2021/08/13 09:41:55;;;;;;;8.60;2.25;;;28.30;52.80;;;;;;5035584;28;20045;-78
2021/08/13 09:44:28;;;;;;;9.52;1.98;;;28.10;52.80;;;;;;5022574;28;20375;-80
2021/08/13 09:47:04;;;;;;;10.98;2.05;;;28.00;53.20;;;;;;5034080;28;20116;-80
2021/08/13 09:49:34;;;;;;;9.27;2.00;;;28.00;52.90;;;;;;5041989;28;20147;-79
2021/08/13 09:52:18;;;;;;;10.00;2.13;;;27.60;52.40;;;;;;5028896;28;20079;-79
2021/08/13 09:54:46;;;;;;;9.77;2.30;;;26.80;52.70;;;;;;5043963;28;20436;-79
2021/08/13 09:57:14;;;;;;;10.02;2.03;;;26.10;53.00;;;;;;5044430;28;20472;-78
2021/08/13 09:59:58;;;;;;;10.82;2.20;;;25.40;53.70;;;;;;5038434;28;20021;-80
2021/08/13 10:02:24;;;;;;;8.27;2.42;;;24.70;54.40;;;;;;5033293;28;20021;-79
2021/08/13 10:04:50;;;;;;;11.68;2.75;;;24.20;55.30;;;;;;5033265;28;20038;-78
2021/08/13 10:07:19;;;;;;;14.60;2.95;;;23.80;55.90;;;;;;5038986;28;20448;-76
2021/08/13 10:09:47;;;;;;;11.18;1.90;;;23.50;56.50;;;;;;5043026;28;20021;-80
2021/08/13 10:12:13;;;;;;;7.47;1.70;;;23.10;56.90;;;;;;5030786;28;20070;-78
2021/08/13 10:14:42;;;;;;;;;;;22.80;57.20;;;;;;5022440;28;20029;-78
2021/08/13 10:17:16;;;;;;;9.25;1.95;;;22.80;58.60;;;;;;5038194;28;19905;-76
2021/08/13 10:19:46;;;;;;;6.45;1.98;;;24.00;59.40;;;;;;5052420;28;20025;-78
2021/08/13 10:22:14;;;;;;;13.43;2.40;;;25.10;57.70;;;;;;5041678;28;20033;-80
2021/08/13 10:24:43;;;;;;;7.43;1.67;;;26.20;56.60;;;;;;5021372;28;20128;-80
2021/08/13 10:27:09;;;;;;;10.50;2.63;;;26.60;54.30;;;;;;5040093;28;20391;-81
2021/08/13 10:29:35;;;;;;;7.50;1.83;;;26.20;53.60;;;;;;5043912;28;20064;-78
2021/08/13 10:32:02;;;;;;;7.63;1.98;;;25.70;53.90;;;;;;5023080;28;20061;-78
2021/08/13 10:34:28;;;;;;;7.03;1.65;;;25.80;54.60;;;;;;5043354;28;20024;-79
2021/08/13 10:36:54;;;;;;;8.32;1.75;;;26.40;54.70;;;;;;5037102;28;20021;-81
2021/08/13 10:39:23;;;;;;;8.85;2.28;;;26.40;53.60;;;;;;5042439;28;20512;-79
2021/08/13 10:42:01;;;;;;;6.63;1.80;;;26.00;53.40;;;;;;5040113;28;20079;-79
2021/08/13 10:44:48;;;;;;;9.65;2.67;;;25.60;53.90;;;;;;5042212;28;20466;-78
2021/08/13 10:47:19;;;;;;;5.68;1.73;;;25.00;54.30;;;;;;5039905;28;20025;-76
2021/08/13 10:49:47;;;;;;;8.65;2.03;;;24.80;55.00;;;;;;5040692;28;20048;-76
2021/08/13 10:52:13;;;;;;;7.93;1.52;;;25.10;55.40;;;;;;5041996;28;20434;-77
2021/08/13 10:54:48;;;;;;;11.02;1.83;;;25.40;54.00;;;;;;5025705;28;20060;-79
2021/08/13 10:57:15;;;;;;;8.48;1.70;;;25.20;53.90;;;;;;5035085;28;20302;-78
2021/08/13 10:59:40;;;;;;;5.35;1.58;;;25.00;53.80;;;;;;5034918;28;20415;-75
2021/08/13 11:02:15;;;;;;;6.90;1.88;;;24.70;54.00;;;;;;5044359;28;20021;-76
2021/08/13 11:04:45;;;;;;;3.88;1.45;;;24.60;54.70;;;;;;5038800;28;20541;-78
2021/08/13 11:07:12;;;;;;;7.97;1.70;;;24.80;54.60;;;;;;5047855;28;20029;-76
2021/08/13 11:09:39;;;;;;;8.48;1.33;;;24.60;54.10;;;;;;5051844;28;20037;-77
2021/08/13 11:12:15;;;;;;;9.52;2.63;;;24.30;54.20;;;;;;5049090;28;20040;-76
2021/08/13 11:14:50;;;;;;;8.35;2.35;;;24.30;55.20;;;;;;5050328;28;20037;-78
2021/08/13 11:17:40;;;;;;;10.18;2.40;;;24.70;54.30;;;;;;5047941;28;20021;-77
2021/08/13 11:20:08;;;;;;;8.23;1.75;;;24.50;53.80;;;;;;5039157;28;20021;-78
2021/08/13 11:22:35;;;;;;;8.60;1.80;;;24.20;54.00;;;;;;5043166;28;20119;-77
2021/08/13 11:25:09;;;;;;;7.72;1.90;;;23.90;54.10;;;;;;5034380;28;20025;-78
2021/08/13 11:27:35;;;;;;;7.40;1.45;;;23.60;54.70;;;;;;5041232;28;20543;-77
2021/08/13 11:30:02;;;;;;;6.75;1.55;;;23.40;55.00;;;;;;5035993;28;20036;-76
2021/08/13 11:32:33;;;;;;;9.13;1.77;;;23.20;55.40;;;;;;5038063;28;20472;-77
2021/08/13 11:35:03;;;;;;;5.60;1.92;;;23.10;55.80;;;;;;5042226;28;20024;-75
2021/08/13 11:37:35;;;;;;;7.93;2.00;;;23.30;56.30;;;;;;5039727;28;20107;-79
2021/08/13 11:40:03;;;;;;;8.80;2.20;;;23.70;56.00;;;;;;5052250;28;20024;-79
2021/08/13 11:42:32;;;;;;;8.20;1.80;;;24.10;55.50;;;;;;5043327;28;20356;-78
2021/08/13 11:45:07;;;;;;;6.22;1.60;;;24.20;55.00;;;;;;5050026;28;20021;-76
2021/08/13 11:47:32;;;;;;;10.45;1.63;;;24.20;55.10;;;;;;5049575;28;20033;-76
2021/08/13 11:50:06;;;;;;;5.63;1.60;;;24.10;54.80;;;;;;5050114;28;20036;-79
2021/08/13 11:52:33;;;;;;;7.60;1.73;;;23.70;55.10;;;;;;5050432;28;20033;-78
2021/08/13 11:55:22;;;;;;;7.97;1.92;;;23.40;55.80;;;;;;5047893;28;20025;-76
2021/08/13 11:57:49;;;;;;;6.38;1.60;;;23.10;56.10;;;;;;5026203;28;20060;-81
2021/08/13 12:00:16;;;;;;;8.52;1.55;;;23.00;56.40;;;;;;5051756;28;20404;-79
2021/08/13 12:02:42;;;;;;;7.25;2.78;;;23.10;57.00;;;;;;5051154;28;20020;-78
2021/08/13 12:05:10;;;;;;;7.47;1.50;;;23.50;57.10;;;;;;5050879;28;20030;-79
2021/08/13 12:07:37;;;;;;;8.75;2.10;;;24.00;57.10;;;;;;5051836;28;20021;-80
2021/08/13 12:10:11;;;;;;;5.05;2.00;;;24.30;56.20;;;;;;5049753;28;20059;-78
2021/08/13 12:12:37;;;;;;;8.40;2.03;;;24.40;55.60;;;;;;5050908;28;20051;-79
2021/08/13 12:15:04;;;;;;;10.57;2.08;;;24.40;55.50;;;;;;5049649;28;20122;-81
2021/08/13 12:17:30;;;;;;;8.02;1.88;;;24.40;55.20;;;;;;5049775;28;20017;-78
2021/08/13 12:20:00;;;;;;;8.75;1.80;;;24.50;55.10;;;;;;5050914;28;20017;-81
2021/08/13 12:22:38;;;;;;;6.72;1.50;;;24.60;55.10;;;;;;5050662;28;20025;-82
2021/08/13 12:25:07;;;;;;;9.18;2.10;;;24.70;55.00;;;;;;5048755;28;20373;-80
2021/08/13 12:27:36;;;;;;;5.97;1.70;;;24.80;55.20;;;;;;5048149;28;20064;-78
2021/08/13 12:30:23;;;;;;;5.90;1.65;;;25.00;54.80;;;;;;5050223;28;20052;-80
2021/08/13 12:32:52;;;;;;;10.93;2.47;;;25.10;54.60;;;;;;5050457;28;20041;-79
2021/08/13 12:35:19;;;;;;;10.43;2.03;;;25.10;54.00;;;;;;5049056;28;20029;-79
2021/08/13 12:37:45;;;;;;;10.45;1.95;;;25.00;53.90;;;;;;5048981;28;20530;-78
2021/08/13 12:40:13;;;;;;;6.55;1.63;;;25.00;53.90;;;;;;5048850;28;20057;-78
2021/08/13 12:42:40;;;;;;;10.57;1.80;;;24.90;53.60;;;;;;5027884;28;20029;-82
2021/08/13 12:45:08;;;;;;;6.25;1.83;;;24.70;53.90;;;;;;5028180;28;20359;-78
2021/08/13 12:47:34;;;;;;;8.25;1.63;;;24.70;54.10;;;;;;5030048;28;20049;-78
2021/08/13 12:50:01;;;;;;;8.55;1.73;;;24.60;53.90;;;;;;5028590;28;20041;-79